Time;durP1;ratioP1;P1;durP2;ratioP2;P2;SDS_P1;SDS_P2;PMS_P1;PMS_P2;Temp;Humidity;BMP_temperature;BMP_pressure;BME280_temperature;BME280_humidity;BME280_pressure;Samples;Min_cycle;Max_cycle;Signal;HPM_P1;HPM_P2
2021/10/24 00:00:00;;;;;;;6.53;6.03;;;13.10;99.90;;;;;;5043894;28;20543;-69
2021/10/24 00:02:31;;;;;;;6.47;6.00;;;13.20;99.90;;;;;;5048441;28;20452;-69
2021/10/24 00:05:02;;;;;;;6.50;6.00;;;13.20;99.90;;;;;;5035294;28;20476;-69
2021/10/24 00:07:33;;;;;;;4.73;4.33;;;13.10;99.90;;;;;;5049199;28;21417;-69
2021/10/24 00:10:04;;;;;;;5.70;5.20;;;13.10;99.90;;;;;;5043569;28;20487;-69
2021/10/24 00:12:36;;;;;;;5.13;4.73;;;13.20;99.90;;;;;;5047271;28;20539;-69
2021/10/24 00:15:10;;;;;;;5.63;5.23;;;13.10;99.90;;;;;;5049588;28;20460;-69
2021/10/24 00:17:40;;;;;;;4.60;4.30;;;13.10;99.90;;;;;;5043919;28;20621;-69
2021/10/24 00:20:12;;;;;;;5.77;5.37;;;13.20;99.90;;;;;;5037751;28;20456;-69
2021/10/24 00:22:43;;;;;;;6.07;5.53;;;13.00;99.90;;;;;;5047058;28;20958;-69
2021/10/24 00:25:14;;;;;;;4.50;4.20;;;13.00;99.90;;;;;;5038186;28;20462;-69
2021/10/24 00:27:44;;;;;;;3.50;3.17;;;13.00;99.90;;;;;;5047645;28;20459;-70
2021/10/24 00:30:17;;;;;;;9.17;8.23;;;12.90;99.90;;;;;;5047711;28;20464;-69
2021/10/24 00:32:48;;;;;;;13.17;11.97;;;12.90;99.90;;;;;;5048213;28;20558;-69
2021/10/24 00:35:19;;;;;;;10.00;9.10;;;12.80;99.90;;;;;;5038739;28;21020;-71
2021/10/24 00:37:49;;;;;;;4.53;4.13;;;12.70;99.90;;;;;;5048944;28;20452;-69
2021/10/24 00:40:20;;;;;;;3.63;3.33;;;12.70;99.90;;;;;;5044141;28;20472;-69
2021/10/24 00:42:53;;;;;;;3.20;3.00;;;12.60;99.90;;;;;;5048908;28;20463;-69
2021/10/24 00:45:25;;;;;;;4.20;3.80;;;12.60;99.90;;;;;;5044658;28;20483;-69
2021/10/24 00:47:56;;;;;;;4.60;4.20;;;12.60;99.90;;;;;;5043819;28;20479;-70
2021/10/24 00:50:28;;;;;;;4.73;4.33;;;12.50;99.90;;;;;;5038833;28;20492;-69
2021/10/24 00:53:00;;;;;;;6.77;4.47;;;12.50;99.90;;;;;;5046658;28;20456;-69
2021/10/24 00:55:31;;;;;;;4.80;4.40;;;12.60;99.90;;;;;;5049082;28;20464;-69
2021/10/24 00:58:03;;;;;;;5.27;4.77;;;12.50;99.90;;;;;;5043972;28;20461;-69
2021/10/24 01:00:36;;;;;;;10.77;9.63;;;12.40;99.90;;;;;;5037890;28;20483;-70
2021/10/24 01:03:08;;;;;;;6.87;6.27;;;12.30;99.90;;;;;;5047607;28;20852;-69
2021/10/24 01:05:39;;;;;;;6.00;5.50;;;12.30;99.90;;;;;;5043358;28;20464;-69
2021/10/24 01:08:10;;;;;;;5.37;4.90;;;12.30;99.90;;;;;;5048502;28;20456;-69
2021/10/24 01:10:41;;;;;;;5.23;4.77;;;12.20;99.90;;;;;;5035807;28;20465;-69
2021/10/24 01:13:12;;;;;;;6.40;4.47;;;12.20;99.90;;;;;;5037548;28;20830;-69
2021/10/24 01:15:45;;;;;;;6.77;5.20;;;12.10;99.90;;;;;;5039547;28;20514;-69
2021/10/24 01:18:15;;;;;;;5.03;4.63;;;12.10;99.90;;;;;;5046346;28;20460;-69
2021/10/24 01:20:51;;;;;;;5.37;4.87;;;12.10;99.90;;;;;;5049104;28;20452;-69
2021/10/24 01:23:24;;;;;;;5.63;5.13;;;12.00;99.90;;;;;;5044198;28;20821;-70
2021/10/24 01:25:55;;;;;;;16.13;7.40;;;12.00;99.90;;;;;;5048812;28;20455;-70
2021/10/24 01:28:26;;;;;;;7.33;6.63;;;12.00;99.90;;;;;;5045045;28;20460;-69
2021/10/24 01:30:57;;;;;;;7.53;6.93;;;11.90;99.90;;;;;;5047183;28;21024;-69
2021/10/24 01:33:29;;;;;;;14.20;12.90;;;11.90;99.90;;;;;;5040084;28;20464;-70
2021/10/24 01:36:06;;;;;;;6.30;5.90;;;11.90;99.90;;;;;;5047544;28;20456;-69
2021/10/24 01:38:38;;;;;;;7.23;6.10;;;11.80;99.90;;;;;;5050265;28;20468;-69
2021/10/24 01:41:09;;;;;;;6.70;6.10;;;11.90;99.90;;;;;;5052540;28;20813;-70
2021/10/24 01:43:40;;;;;;;6.13;5.63;;;11.80;99.90;;;;;;5042032;28;20460;-69
2021/10/24 01:46:11;;;;;;;7.00;6.43;;;11.90;99.90;;;;;;5051971;28;20448;-70
2021/10/24 01:48:42;;;;;;;8.30;7.50;;;11.90;99.90;;;;;;5033717;28;20480;-69
2021/10/24 01:51:14;;;;;;;8.13;7.33;;;11.90;99.90;;;;;;5048930;28;20482;-69
2021/10/24 01:53:47;;;;;;;8.83;7.47;;;11.90;99.90;;;;;;5030444;28;20532;-69
2021/10/24 01:56:18;;;;;;;8.10;7.50;;;11.90;99.90;;;;;;5048872;28;20452;-69
2021/10/24 01:58:48;;;;;;;8.40;7.70;;;11.90;99.90;;;;;;5045511;28;20460;-69
2021/10/24 02:01:20;;;;;;;7.90;7.20;;;11.80;99.90;;;;;;5047522;28;20475;-69
2021/10/24 02:03:51;;;;;;;8.77;7.97;;;11.80;99.90;;;;;;5050970;28;20826;-70
2021/10/24 02:06:23;;;;;;;8.00;7.40;;;11.90;99.90;;;;;;5049754;28;20473;-69
2021/10/24 02:08:54;;;;;;;7.43;6.73;;;11.90;99.90;;;;;;5051843;28;20456;-70
2021/10/24 02:11:25;;;;;;;9.27;8.40;;;11.90;99.90;;;;;;5049822;28;20468;-69
2021/10/24 02:13:55;;;;;;;8.60;7.87;;;11.90;99.90;;;;;;5051382;28;20452;-69
2021/10/24 02:16:26;;;;;;;8.77;7.87;;;11.90;99.90;;;;;;5033759;28;20467;-70
2021/10/24 02:18:57;;;;;;;9.97;9.17;;;11.90;99.90;;;;;;5048931;28;20471;-69
2021/10/24 02:21:29;;;;;;;9.97;9.07;;;11.90;99.90;;;;;;5050323;28;20459;-69
2021/10/24 02:24:00;;;;;;;10.63;9.73;;;12.00;99.90;;;;;;5049506;28;20477;-69
2021/10/24 02:26:32;;;;;;;11.93;11.00;;;12.00;99.90;;;;;;5050408;28;20464;-69
2021/10/24 02:29:02;;;;;;;11.40;10.40;;;12.10;99.90;;;;;;5031278;28;20606;-69
2021/10/24 02:31:33;;;;;;;11.93;10.93;;;12.20;99.90;;;;;;5051318;28;20448;-70
2021/10/24 02:34:04;;;;;;;12.53;11.53;;;12.20;99.90;;;;;;5048648;28;20456;-69
2021/10/24 02:36:36;;;;;;;15.20;14.00;;;12.20;99.90;;;;;;5051305;28;20452;-70
2021/10/24 02:39:07;;;;;;;15.17;13.67;;;12.20;99.90;;;;;;5043505;28;20475;-70
2021/10/24 02:41:38;;;;;;;13.80;12.50;;;12.10;99.90;;;;;;5042518;28;20456;-69
2021/10/24 02:44:09;;;;;;;13.83;12.70;;;11.90;99.90;;;;;;5049132;28;20512;-69
2021/10/24 02:46:39;;;;;;;13.00;11.90;;;11.70;99.90;;;;;;5050768;28;20456;-69
2021/10/24 02:49:11;;;;;;;13.97;12.67;;;11.60;99.90;;;;;;5048274;28;20472;-69
2021/10/24 02:51:44;;;;;;;14.00;12.67;;;11.60;99.90;;;;;;5035269;28;20503;-69
2021/10/24 02:54:15;;;;;;;15.33;13.73;;;11.50;99.90;;;;;;5049186;28;20464;-69
2021/10/24 02:56:45;;;;;;;16.07;14.47;;;11.40;99.90;;;;;;5050879;28;21022;-69
2021/10/24 02:59:18;;;;;;;14.90;13.60;;;11.40;99.90;;;;;;5040966;28;20947;-69
2021/10/24 03:01:49;;;;;;;15.30;13.90;;;11.40;99.90;;;;;;5050592;28;20950;-69
2021/10/24 03:04:20;;;;;;;16.03;14.37;;;11.40;99.90;;;;;;5048222;28;20468;-69
2021/10/24 03:06:52;;;;;;;17.00;15.30;;;11.40;99.90;;;;;;5050571;28;20942;-69
2021/10/24 03:09:23;;;;;;;15.73;14.30;;;11.40;99.90;;;;;;5048611;28;20466;-69
2021/10/24 03:11:54;;;;;;;16.27;14.87;;;11.50;99.90;;;;;;5050470;28;20471;-69
2021/10/24 03:14:25;;;;;;;15.77;14.37;;;11.40;99.90;;;;;;5039219;28;20541;-69
2021/10/24 03:16:58;;;;;;;15.70;14.30;;;11.40;99.90;;;;;;5045092;28;20456;-69
2021/10/24 03:19:28;;;;;;;16.13;14.73;;;11.40;99.90;;;;;;5046515;28;20965;-69
2021/10/24 03:22:03;;;;;;;16.40;14.70;;;11.50;99.90;;;;;;5050314;28;20510;-70
2021/10/24 03:24:34;;;;;;;12.53;11.43;;;11.50;99.90;;;;;;5048654;28;20487;-69
2021/10/24 03:27:05;;;;;;;13.03;12.03;;;11.50;99.90;;;;;;5050287;28;20474;-69
2021/10/24 03:29:36;;;;;;;12.27;11.27;;;11.50;99.90;;;;;;5044466;28;20784;-70
2021/10/24 03:32:08;;;;;;;13.27;12.10;;;11.50;99.90;;;;;;5050485;28;20591;-69
2021/10/24 03:34:38;;;;;;;12.57;11.50;;;11.50;99.90;;;;;;5047610;28;20471;-69
2021/10/24 03:37:11;;;;;;;15.40;14.00;;;11.50;99.90;;;;;;5050532;28;20457;-69
2021/10/24 03:39:41;;;;;;;15.27;13.87;;;11.50;99.90;;;;;;5048665;28;20468;-69
2021/10/24 03:42:12;;;;;;;15.03;13.60;;;11.40;99.90;;;;;;5050335;28;20479;-69
2021/10/24 03:44:43;;;;;;;13.77;12.60;;;11.50;99.90;;;;;;5049122;28;20495;-69
2021/10/24 03:47:14;;;;;;;14.67;13.40;;;11.40;99.90;;;;;;5049647;28;20570;-70
2021/10/24 03:49:45;;;;;;;14.90;13.50;;;11.40;99.90;;;;;;5048199;28;20460;-69
2021/10/24 03:52:17;;;;;;;14.03;12.70;;;11.30;99.90;;;;;;5047199;28;20484;-70
2021/10/24 03:54:48;;;;;;;15.00;13.80;;;11.30;99.90;;;;;;5050155;28;20467;-72
2021/10/24 03:57:19;;;;;;;15.93;14.60;;;11.20;99.90;;;;;;5031672;28;20951;-69
2021/10/24 03:59:50;;;;;;;15.10;13.80;;;11.20;99.90;;;;;;5046218;28;20464;-69
2021/10/24 04:02:21;;;;;;;15.40;14.10;;;11.20;99.90;;;;;;5048654;28;20464;-70
2021/10/24 04:04:52;;;;;;;14.50;13.30;;;11.10;99.90;;;;;;5048257;28;20576;-69
2021/10/24 04:07:25;;;;;;;14.80;13.50;;;11.10;99.90;;;;;;5046967;28;20476;-69
2021/10/24 04:09:55;;;;;;;16.33;14.93;;;11.00;99.90;;;;;;5047874;28;20468;-69
2021/10/24 04:12:26;;;;;;;15.43;13.93;;;11.00;99.90;;;;;;5049247;28;20463;-69
2021/10/24 04:14:57;;;;;;;15.57;14.07;;;10.90;99.90;;;;;;5047863;28;20456;-69
2021/10/24 04:17:28;;;;;;;15.23;13.83;;;10.90;99.90;;;;;;5047150;28;20448;-69
2021/10/24 04:19:59;;;;;;;15.00;13.60;;;10.90;99.90;;;;;;5045882;28;20944;-68
2021/10/24 04:22:31;;;;;;;13.90;12.40;;;10.90;99.90;;;;;;5048827;28;20463;-69
2021/10/24 04:25:02;;;;;;;16.20;14.67;;;10.90;99.90;;;;;;5047790;28;20482;-69
2021/10/24 04:27:33;;;;;;;14.90;13.70;;;10.90;99.90;;;;;;5049070;28;20546;-69
2021/10/24 04:30:07;;;;;;;14.03;12.63;;;10.90;99.90;;;;;;5043729;28;20934;-69
2021/10/24 04:32:41;;;;;;;16.30;14.73;;;10.90;99.90;;;;;;5048376;28;20828;-69
2021/10/24 04:35:13;;;;;;;13.83;12.73;;;11.00;99.90;;;;;;5042125;28;20922;-69
2021/10/24 04:37:45;;;;;;;15.30;14.00;;;11.10;99.90;;;;;;5041794;28;20772;-69
2021/10/24 04:40:16;;;;;;;16.87;15.23;;;11.10;99.90;;;;;;5042055;28;20995;-69
2021/10/24 04:42:47;;;;;;;17.10;15.50;;;11.20;99.90;;;;;;5048864;28;20459;-69
2021/10/24 04:45:18;;;;;;;18.97;17.07;;;11.20;99.90;;;;;;5039845;28;20925;-70
2021/10/24 04:47:49;;;;;;;18.43;16.73;;;11.20;99.90;;;;;;5045149;28;20455;-69
2021/10/24 04:50:20;;;;;;;18.70;16.90;;;11.30;99.90;;;;;;5046305;28;20475;-69
2021/10/24 04:52:53;;;;;;;19.23;17.33;;;11.30;99.90;;;;;;5046764;28;20479;-70
2021/10/24 04:55:24;;;;;;;19.77;17.73;;;11.30;99.90;;;;;;5048970;28;20452;-69
2021/10/24 04:57:54;;;;;;;20.83;18.83;;;11.30;99.90;;;;;;5046842;28;20452;-69
2021/10/24 05:00:25;;;;;;;19.53;17.27;;;11.30;99.90;;;;;;5047300;28;20461;-69
2021/10/24 05:02:56;;;;;;;19.27;17.37;;;11.40;99.90;;;;;;5048312;28;20816;-69
2021/10/24 05:05:27;;;;;;;19.17;17.27;;;11.40;99.90;;;;;;5046733;28;20487;-69
2021/10/24 05:08:00;;;;;;;17.80;16.00;;;11.40;99.90;;;;;;5048639;28;20462;-69
2021/10/24 05:10:30;;;;;;;15.60;14.20;;;11.40;99.90;;;;;;5046823;28;20464;-69
2021/10/24 05:13:01;;;;;;;14.23;12.80;;;11.40;99.90;;;;;;5046885;28;20475;-69
2021/10/24 05:15:32;;;;;;;11.10;10.00;;;11.40;99.90;;;;;;5047833;28;20456;-69
2021/10/24 05:18:03;;;;;;;9.70;8.83;;;11.40;99.90;;;;;;5039005;28;20457;-69
2021/10/24 05:20:34;;;;;;;7.73;7.13;;;11.40;99.90;;;;;;5048449;28;20452;-69
2021/10/24 05:23:06;;;;;;;8.80;8.10;;;11.30;99.90;;;;;;5043174;28;20464;-69
2021/10/24 05:25:58;;;;;;;6.80;6.30;;;11.30;99.90;;;;;;5042905;28;20467;-69
2021/10/24 05:28:29;;;;;;;6.60;6.00;;;11.30;99.90;;;;;;5040103;28;20489;-70
2021/10/24 05:30:59;;;;;;;4.93;4.50;;;11.30;99.90;;;;;;5043389;28;20566;-69
2021/10/24 05:33:30;;;;;;;6.00;5.50;;;11.20;99.90;;;;;;5045389;28;20456;-69
2021/10/24 05:36:02;;;;;;;4.43;4.03;;;11.20;99.90;;;;;;5048644;28;20802;-69
2021/10/24 05:38:34;;;;;;;4.83;4.30;;;11.10;99.90;;;;;;5045930;28;20449;-70
2021/10/24 05:41:05;;;;;;;4.70;4.07;;;11.10;99.90;;;;;;5046675;28;20468;-69
2021/10/24 05:43:36;;;;;;;4.90;4.43;;;11.10;99.90;;;;;;5048054;28;20499;-69
2021/10/24 05:46:07;;;;;;;3.70;3.50;;;11.10;99.90;;;;;;5031544;28;20528;-69
2021/10/24 05:48:38;;;;;;;4.80;4.40;;;11.10;99.90;;;;;;5037263;28;20487;-69
2021/10/24 05:51:10;;;;;;;5.30;4.90;;;11.10;99.90;;;;;;5044128;28;20985;-69
2021/10/24 05:53:43;;;;;;;4.97;4.57;;;11.10;99.90;;;;;;5038623;28;20468;-69
2021/10/24 05:56:14;;;;;;;4.73;4.33;;;11.10;99.90;;;;;;5045096;28;20456;-72
2021/10/24 05:58:45;;;;;;;5.23;4.77;;;11.10;99.90;;;;;;5044552;28;20468;-70
2021/10/24 06:01:15;;;;;;;4.70;4.30;;;11.10;99.90;;;;;;5048559;28;20555;-69
2021/10/24 06:03:46;;;;;;;6.03;5.53;;;11.20;99.90;;;;;;5045895;28;20460;-69
2021/10/24 06:06:17;;;;;;;5.20;4.70;;;11.10;99.90;;;;;;5046509;28;20480;-69
2021/10/24 06:08:50;;;;;;;4.93;4.53;;;11.10;99.90;;;;;;5047759;28;20494;-70
2021/10/24 06:11:26;;;;;;;4.37;3.97;;;11.10;99.90;;;;;;5046311;28;20460;-69
2021/10/24 06:13:57;;;;;;;5.87;4.63;;;11.20;99.90;;;;;;5048007;28;20808;-69
2021/10/24 06:16:28;;;;;;;4.43;4.13;;;11.20;99.90;;;;;;5046739;28;20464;-69
2021/10/24 06:18:59;;;;;;;4.60;4.13;;;11.20;99.90;;;;;;5038586;28;20458;-69
2021/10/24 06:21:30;;;;;;;5.33;4.60;;;11.30;99.90;;;;;;5050362;28;20575;-70
2021/10/24 06:24:03;;;;;;;4.03;3.73;;;11.30;99.90;;;;;;5040681;28;20490;-68
2021/10/24 06:26:33;;;;;;;5.50;3.90;;;11.30;99.90;;;;;;5050585;28;20804;-69
2021/10/24 06:29:04;;;;;;;5.10;4.60;;;11.30;99.90;;;;;;5034407;28;20488;-68
2021/10/24 06:31:35;;;;;;;4.67;4.27;;;11.20;99.90;;;;;;5050971;28;20547;-70
2021/10/24 06:34:06;;;;;;;5.90;4.23;;;11.20;99.90;;;;;;5048698;28;20467;-68
2021/10/24 06:36:37;;;;;;;6.73;6.13;;;11.20;99.90;;;;;;5051254;28;20471;-68
2021/10/24 06:39:10;;;;;;;5.33;4.93;;;11.20;99.90;;;;;;5049374;28;20802;-68
2021/10/24 06:41:40;;;;;;;5.10;4.70;;;11.20;99.90;;;;;;5051188;28;20468;-68
2021/10/24 06:44:11;;;;;;;5.33;4.87;;;11.30;99.90;;;;;;5041693;28;20787;-72
2021/10/24 06:46:42;;;;;;;5.20;4.70;;;11.20;99.90;;;;;;5043884;28;20452;-68
2021/10/24 06:49:13;;;;;;;5.50;4.90;;;11.10;99.90;;;;;;5048897;28;21051;-68
2021/10/24 06:51:44;;;;;;;6.43;5.83;;;11.00;99.90;;;;;;5035657;28;20487;-69
2021/10/24 06:54:16;;;;;;;5.40;5.00;;;11.00;99.90;;;;;;5049353;28;20468;-69
2021/10/24 06:56:50;;;;;;;5.60;5.10;;;10.90;99.90;;;;;;5041706;28;20478;-68
2021/10/24 06:59:21;;;;;;;5.23;4.77;;;11.00;99.90;;;;;;5047212;28;20539;-69
2021/10/24 07:01:52;;;;;;;5.97;5.50;;;11.00;99.90;;;;;;5048987;28;20479;-68
2021/10/24 07:04:23;;;;;;;8.13;7.33;;;11.00;99.90;;;;;;5047639;28;20911;-69
2021/10/24 07:06:53;;;;;;;6.80;6.30;;;11.00;99.90;;;;;;5035746;28;20461;-68
2021/10/24 07:09:26;;;;;;;6.07;5.57;;;11.00;99.90;;;;;;5048593;28;20928;-69
2021/10/24 07:12:11;;;;;;;6.50;5.93;;;11.00;99.90;;;;;;5044196;28;20460;-68
2021/10/24 07:14:42;;;;;;;7.67;6.97;;;11.00;99.90;;;;;;5050827;28;20453;-68
2021/10/24 07:17:13;;;;;;;6.80;6.30;;;11.10;99.90;;;;;;5049007;28;20470;-68
2021/10/24 07:19:44;;;;;;;8.00;7.30;;;11.10;99.90;;;;;;5048166;28;20490;-68
2021/10/24 07:22:15;;;;;;;7.20;6.60;;;11.20;99.90;;;;;;5050523;28;20456;-69
2021/10/24 07:24:47;;;;;;;7.53;6.93;;;11.10;99.90;;;;;;5048852;28;20938;-69
2021/10/24 07:27:18;;;;;;;7.50;6.80;;;11.10;99.90;;;;;;5049976;28;20540;-69
2021/10/24 07:29:49;;;;;;;10.30;6.70;;;11.00;99.90;;;;;;5045568;28;20491;-69
2021/10/24 07:32:20;;;;;;;6.27;5.77;;;11.00;99.90;;;;;;5049456;28;20467;-69
2021/10/24 07:34:51;;;;;;;6.87;6.27;;;11.10;99.90;;;;;;5048465;28;20468;-70
2021/10/24 07:37:21;;;;;;;7.10;5.80;;;11.00;99.90;;;;;;5047639;28;20560;-69
2021/10/24 07:39:54;;;;;;;5.90;5.40;;;11.00;99.90;;;;;;5048372;28;20456;-68
2021/10/24 07:42:25;;;;;;;5.50;5.00;;;11.00;99.90;;;;;;5049452;28;20463;-68
2021/10/24 07:44:56;;;;;;;5.27;4.83;;;11.10;99.90;;;;;;5048361;28;20809;-68
2021/10/24 07:47:30;;;;;;;6.10;5.50;;;11.20;99.90;;;;;;5047367;28;20452;-69
2021/10/24 07:50:01;;;;;;;5.37;4.87;;;11.20;99.90;;;;;;5048012;28;20997;-69
2021/10/24 07:52:32;;;;;;;5.57;5.07;;;11.20;99.90;;;;;;5049744;28;20499;-69
2021/10/24 07:55:05;;;;;;;5.77;5.10;;;11.20;99.90;;;;;;5047899;28;20523;-70
2021/10/24 07:57:35;;;;;;;5.43;4.90;;;11.20;99.90;;;;;;5048124;28;20486;-71
2021/10/24 08:00:08;;;;;;;5.73;5.13;;;11.20;99.90;;;;;;5046201;28;20464;-68
2021/10/24 08:02:38;;;;;;;4.50;4.20;;;11.20;99.90;;;;;;5048936;28;20456;-69
2021/10/24 08:05:10;;;;;;;5.40;5.00;;;11.30;99.90;;;;;;5048390;28;20468;-68
2021/10/24 08:07:43;;;;;;;5.13;4.60;;;11.20;99.90;;;;;;5043908;28;20795;-68
2021/10/24 08:10:18;;;;;;;5.50;5.00;;;11.20;99.90;;;;;;5048272;28;20484;-68
2021/10/24 08:12:49;;;;;;;6.20;4.77;;;11.20;99.90;;;;;;5049558;28;20812;-68
2021/10/24 08:15:20;;;;;;;4.43;4.13;;;11.20;99.90;;;;;;5048017;28;20919;-68
2021/10/24 08:17:51;;;;;;;5.47;4.97;;;11.20;99.90;;;;;;5046998;28;20456;-69
2021/10/24 08:20:22;;;;;;;6.40;4.87;;;11.10;99.90;;;;;;5049608;28;20540;-68
2021/10/24 08:22:53;;;;;;;5.70;5.03;;;11.20;99.90;;;;;;5047567;28;20456;-69
2021/10/24 08:25:26;;;;;;;5.17;4.67;;;11.20;99.90;;;;;;5048249;28;20495;-68
2021/10/24 08:27:59;;;;;;;5.70;5.20;;;11.10;99.90;;;;;;5049348;28;20464;-68
2021/10/24 08:30:31;;;;;;;5.60;5.10;;;11.20;99.90;;;;;;5043987;28;20840;-68
2021/10/24 08:33:02;;;;;;;5.03;4.53;;;11.30;99.90;;;;;;5048914;28;20463;-68
2021/10/24 08:35:33;;;;;;;5.97;5.43;;;11.10;99.90;;;;;;5046983;28;20463;-69
2021/10/24 08:38:04;;;;;;;5.70;5.17;;;11.10;99.90;;;;;;5049059;28;20460;-68
2021/10/24 08:40:36;;;;;;;6.00;5.00;;;11.10;99.90;;;;;;5044734;28;20460;-68
2021/10/24 08:43:14;;;;;;;6.57;5.90;;;11.10;99.90;;;;;;5036280;28;20461;-69
2021/10/24 08:45:46;;;;;;;5.60;5.10;;;11.20;99.90;;;;;;5047400;28;20470;-69
2021/10/24 08:48:18;;;;;;;5.67;5.17;;;11.10;99.90;;;;;;5041637;28;20483;-69
2021/10/24 08:50:50;;;;;;;5.30;4.90;;;11.00;99.90;;;;;;5042387;28;20562;-69
2021/10/24 08:53:27;;;;;;;5.80;5.30;;;11.00;99.90;;;;;;5044704;28;20464;-70
2021/10/24 08:55:59;;;;;;;6.90;6.23;;;11.00;99.90;;;;;;5048867;28;20471;-70
2021/10/24 08:58:30;;;;;;;7.27;6.10;;;11.00;99.90;;;;;;5044105;28;20473;-69
2021/10/24 09:01:01;;;;;;;5.77;5.27;;;10.90;99.90;;;;;;5035748;28;20452;-68
2021/10/24 09:03:32;;;;;;;5.57;5.03;;;11.00;99.90;;;;;;5045635;28;20463;-70
2021/10/24 09:06:05;;;;;;;5.93;5.23;;;10.90;99.90;;;;;;5048960;28;20471;-69
2021/10/24 09:08:39;;;;;;;8.30;5.07;;;10.90;99.90;;;;;;5045714;28;20467;-69
2021/10/24 09:11:12;;;;;;;6.40;5.30;;;10.90;99.90;;;;;;5036689;28;20480;-69
2021/10/24 09:13:48;;;;;;;5.10;4.70;;;10.90;99.90;;;;;;5046904;28;20462;-69
2021/10/24 09:16:19;;;;;;;5.93;5.37;;;11.00;99.90;;;;;;5048765;28;20456;-69
2021/10/24 09:18:50;;;;;;;4.93;4.43;;;11.00;99.90;;;;;;5036817;28;20465;-69
2021/10/24 09:21:25;;;;;;;6.00;5.50;;;11.00;99.90;;;;;;5046353;28;20464;-69
2021/10/24 09:24:13;;;;;;;5.27;4.77;;;11.10;99.90;;;;;;5048630;28;20451;-69
2021/10/24 09:26:45;;;;;;;4.60;4.20;;;11.10;99.90;;;;;;5041374;28;20456;-69
2021/10/24 09:29:17;;;;;;;6.13;4.97;;;11.00;99.90;;;;;;5036853;28;20574;-69
2021/10/24 09:31:53;;;;;;;4.20;3.90;;;11.10;99.90;;;;;;5048740;28;20480;-69
2021/10/24 09:34:25;;;;;;;5.27;4.73;;;11.10;99.90;;;;;;5045874;28;20567;-68
2021/10/24 09:36:57;;;;;;;4.50;4.10;;;11.20;99.90;;;;;;5048619;28;20478;-69
2021/10/24 09:39:29;;;;;;;4.43;4.00;;;11.10;99.90;;;;;;5045013;28;20456;-68
2021/10/24 09:42:17;;;;;;;4.37;3.97;;;11.20;99.90;;;;;;5048451;28;20459;-69
2021/10/24 09:45:06;;;;;;;4.93;4.47;;;11.20;99.90;;;;;;5036894;28;20453;-69
2021/10/24 09:47:37;;;;;;;4.37;3.97;;;11.20;99.90;;;;;;5045012;28;20579;-69
2021/10/24 09:50:10;;;;;;;4.40;4.00;;;11.20;99.90;;;;;;5046739;28;20460;-69
2021/10/24 09:52:41;;;;;;;4.30;3.90;;;11.20;99.90;;;;;;5051858;28;20603;-68
2021/10/24 09:55:18;;;;;;;4.63;3.93;;;11.20;99.90;;;;;;5050314;28;20460;-69
2021/10/24 09:57:51;;;;;;;5.83;4.50;;;11.10;99.90;;;;;;5051625;28;20452;-68
2021/10/24 10:00:22;;;;;;;4.37;3.97;;;11.20;99.90;;;;;;5050399;28;20472;-69
2021/10/24 10:02:54;;;;;;;4.50;4.10;;;11.20;99.90;;;;;;5050975;28;20460;-70
2021/10/24 10:05:25;;;;;;;6.53;4.27;;;11.20;99.90;;;;;;5050037;28;20556;-69
2021/10/24 10:07:56;;;;;;;6.37;4.13;;;11.20;99.90;;;;;;5052086;28;20819;-69
2021/10/24 10:10:28;;;;;;;5.23;4.73;;;11.20;99.90;;;;;;5035843;28;20811;-70
2021/10/24 10:13:03;;;;;;;4.73;4.33;;;11.20;99.90;;;;;;5051434;28;20567;-69
2021/10/24 10:15:37;;;;;;;4.00;3.70;;;11.20;99.90;;;;;;5048217;28;20474;-69
2021/10/24 10:18:08;;;;;;;4.73;4.33;;;11.20;99.90;;;;;;5048978;28;20472;-69
2021/10/24 10:20:52;;;;;;;4.67;4.27;;;11.20;99.90;;;;;;5052443;28;20483;-68
2021/10/24 10:23:25;;;;;;;4.40;4.10;;;11.30;99.90;;;;;;5047487;28;20462;-68
2021/10/24 10:25:55;;;;;;;4.97;4.57;;;11.20;99.90;;;;;;5052037;28;20451;-69
2021/10/24 10:28:47;;;;;;;5.53;5.03;;;11.30;99.90;;;;;;5046262;28;20479;-69
2021/10/24 10:31:19;;;;;;;7.30;4.70;;;11.30;99.90;;;;;;5051012;28;20479;-69
2021/10/24 10:34:00;;;;;;;4.93;4.40;;;11.20;99.90;;;;;;5048587;28;20539;-69
2021/10/24 10:36:59;;;;;;;4.63;4.33;;;11.20;99.90;;;;;;5051214;28;20460;-69
2021/10/24 10:39:44;;;;;;;4.30;3.93;;;11.20;99.90;;;;;;5048107;28;20554;-70
2021/10/24 10:42:51;;;;;;;3.77;3.57;;;11.20;99.90;;;;;;5046757;28;20459;-69
2021/10/24 10:45:42;;;;;;;4.90;4.50;;;11.30;99.90;;;;;;5051247;28;20475;-68
2021/10/24 10:48:31;;;;;;;9.40;4.10;;;11.20;99.90;;;;;;5041244;28;20463;-68
2021/10/24 10:51:04;;;;;;;4.67;4.00;;;11.20;99.90;;;;;;5050538;28;20476;-68
2021/10/24 10:53:58;;;;;;;4.53;4.13;;;11.20;99.90;;;;;;5048878;28;20479;-69
2021/10/24 10:56:31;;;;;;;4.50;4.10;;;11.30;99.90;;;;;;5049725;28;20463;-69
2021/10/24 10:59:03;;;;;;;4.70;3.70;;;11.20;99.90;;;;;;5047188;28;20479;-68
2021/10/24 11:01:37;;;;;;;5.00;3.77;;;11.20;99.90;;;;;;5050349;28;20456;-68
2021/10/24 11:04:22;;;;;;;3.83;3.20;;;11.20;99.90;;;;;;5047999;28;20510;-68
2021/10/24 11:06:54;;;;;;;3.90;3.60;;;11.30;99.90;;;;;;5042657;28;20476;-68
2021/10/24 11:09:48;;;;;;;4.47;3.53;;;11.20;99.90;;;;;;5046456;28;20460;-70
2021/10/24 11:12:37;;;;;;;3.67;3.37;;;11.20;99.90;;;;;;5050417;28;20491;-70
2021/10/24 11:15:14;;;;;;;3.93;3.30;;;11.30;99.90;;;;;;5044639;28;20520;-68
2021/10/24 11:17:48;;;;;;;3.83;3.53;;;11.30;99.90;;;;;;5047785;28;20748;-69
2021/10/24 11:20:22;;;;;;;4.40;4.00;;;11.30;99.90;;;;;;5050402;28;20802;-68
2021/10/24 11:23:02;;;;;;;4.17;3.37;;;11.30;99.90;;;;;;5047859;28;20448;-68
2021/10/24 11:25:53;;;;;;;8.57;4.25;;;11.30;99.90;;;;;;5050283;28;20459;-68
2021/10/24 11:28:27;;;;;;;3.30;3.00;;;11.20;99.90;;;;;;5046640;28;20221;-68
2021/10/24 11:31:04;;;;;;;3.23;2.93;;;11.30;99.90;;;;;;5045136;28;20456;-68
2021/10/24 11:33:50;;;;;;;4.17;3.40;;;11.20;99.90;;;;;;5047258;28;20480;-71
2021/10/24 11:36:22;;;;;;;3.33;3.13;;;11.30;99.90;;;;;;5048528;28;20472;-67
2021/10/24 11:38:57;;;;;;;3.60;3.30;;;11.30;99.90;;;;;;5050215;28;20985;-68
2021/10/24 11:41:29;;;;;;;2.83;2.63;;;11.30;99.90;;;;;;5046749;28;20491;-68
2021/10/24 11:44:10;;;;;;;4.53;2.77;;;11.30;99.90;;;;;;5049986;28;20842;-67
2021/10/24 11:46:41;;;;;;;3.17;2.80;;;11.30;99.90;;;;;;5041784;28;20637;-68
2021/10/24 11:49:13;;;;;;;3.17;2.97;;;11.20;99.90;;;;;;5043285;28;20464;-67
2021/10/24 11:51:55;;;;;;;3.40;3.10;;;11.20;99.90;;;;;;5042549;28;20822;-68
2021/10/24 11:54:25;;;;;;;3.63;2.60;;;11.20;99.90;;;;;;5035351;28;20519;-68
2021/10/24 11:57:26;;;;;;;3.17;2.88;;;11.20;99.90;;;;;;5049444;28;20470;-68
2021/10/24 12:00:16;;;;;;;3.73;3.43;;;11.20;99.90;;;;;;5040521;28;20221;-68
2021/10/24 12:02:58;;;;;;;3.13;2.83;;;11.20;99.90;;;;;;5046545;28;20464;-68
2021/10/24 12:05:32;;;;;;;2.90;2.70;;;11.30;99.90;;;;;;5049794;28;20482;-68
2021/10/24 12:08:03;;;;;;;3.00;2.80;;;11.20;99.90;;;;;;5047660;28;20460;-68
2021/10/24 12:10:37;;;;;;;2.70;2.50;;;11.20;99.90;;;;;;5049776;28;20460;-67
2021/10/24 12:13:32;;;;;;;2.60;2.40;;;11.20;99.90;;;;;;5047002;28;20514;-68
2021/10/24 12:16:04;;;;;;;2.33;2.23;;;11.30;99.90;;;;;;5044766;28;20553;-68
2021/10/24 12:18:37;;;;;;;2.10;2.00;;;11.20;99.90;;;;;;5044124;28;20460;-68
2021/10/24 12:21:10;;;;;;;2.53;2.33;;;11.20;99.90;;;;;;5049375;28;20455;-68
2021/10/24 12:23:41;;;;;;;2.57;2.47;;;11.20;99.90;;;;;;5039371;28;20459;-67
2021/10/24 12:26:11;;;;;;;2.80;2.60;;;11.30;99.90;;;;;;5049317;28;20452;-69
2021/10/24 12:28:43;;;;;;;2.50;2.30;;;11.30;99.90;;;;;;5037244;28;20464;-69
2021/10/24 12:31:17;;;;;;;2.60;1.97;;;11.30;99.90;;;;;;5040193;28;20479;-68
2021/10/24 12:33:49;;;;;;;2.60;1.90;;;11.30;99.90;;;;;;5048330;28;20495;-70
2021/10/24 12:36:35;;;;;;;2.70;2.47;;;11.30;99.90;;;;;;5044488;28;20464;-70
2021/10/24 12:39:08;;;;;;;2.10;1.97;;;11.30;99.90;;;;;;5048967;28;20452;-68
2021/10/24 12:41:40;;;;;;;2.10;1.90;;;11.30;99.90;;;;;;5039079;28;20456;-69
2021/10/24 12:44:11;;;;;;;2.40;2.27;;;11.30;99.90;;;;;;5036898;28;20217;-70
2021/10/24 12:46:43;;;;;;;2.00;1.90;;;11.30;99.90;;;;;;5048857;28;20462;-69
2021/10/24 12:49:15;;;;;;;2.07;1.93;;;11.20;99.90;;;;;;5043134;28;20460;-69
2021/10/24 12:51:49;;;;;;;2.00;1.90;;;11.30;99.90;;;;;;5049216;28;20593;-69
2021/10/24 12:54:29;;;;;;;3.90;2.17;;;11.20;99.90;;;;;;5046983;28;20487;-69
2021/10/24 12:57:01;;;;;;;1.70;1.60;;;11.20;99.90;;;;;;5047157;28;20490;-70
2021/10/24 12:59:31;;;;;;;1.70;1.60;;;11.20;99.90;;;;;;5039473;28;20968;-70
2021/10/24 13:02:04;;;;;;;2.00;1.80;;;11.20;99.90;;;;;;5048700;28;20460;-70
2021/10/24 13:04:35;;;;;;;1.50;1.40;;;11.20;99.90;;;;;;5037598;28;20545;-69
2021/10/24 13:07:08;;;;;;;1.70;1.60;;;11.20;99.90;;;;;;5044311;28;20560;-69
2021/10/24 13:09:38;;;;;;;1.67;1.57;;;11.20;99.90;;;;;;5038367;28;20539;-69
2021/10/24 13:12:09;;;;;;;1.30;1.20;;;11.20;99.90;;;;;;5048800;28;20458;-69